気象予報士の航空気象 黄砂で黄色い夕焼け

*All archives   *Admin

2010.05.25 (Tue)

黄砂で黄色い夕焼け

本日は、大型ショッピングセンターへ買い物へ。


倉庫型のショッピングセンターです。


その帰り、夕方ですが、やたら風が強く、空は黄色く”もや”がかかったように見えました。


METARを確認してみると、黄砂が原因でした。



黄砂情報25MAY10




羽田空港
RJTT 250710Z 20021G31KT CAVOK 25/15 Q0998 RMK A2949

RJTT 250730Z 20017KT 7000 NSC 25/16 Q0998 RMK 1AC130 A2948

RJTT 250800Z 20023KT 6000 NSC 25/16 Q0998 RMK 1AC130 A2948

RJTT 250830Z 19019KT 5000 SA NSC 24/16 Q0998

RJTT 250900Z 19021KT 5000 SA NSC 23/17 Q0998 RMK A2948 YELLOW SAND

RJTT 250903Z 19022G32KT 5000 SA NSC 23/17 Q0998 RMK A2948 YELLOW SAND

RJTT 250930Z 20020KT 5000 SA NSC 23/17 Q0998 RMK A2949 YELLOW SAND

RJTT 251000Z 20019KT 5000 SA NSC 23/17 Q0999 RMK A2950 YELLOW SAND


成田空港
RJAA 250800Z 21014G25KT CAVOK 25/15 Q0998 WS R16R WS R16L NOSIG RMK A2948

RJAA 250830Z 20012KT 9000 NSC 24/16 Q0998 BECMG 21015G26KT

RJAA 250847Z 21015G25KT 170V240 9000 FEW035 BKN/// 24/16 Q0998 WS R16R WS R16L RMK 1CU035 A2950

RJAA 250900Z 20011KT 8000 FEW035 BKN/// 23/16 Q0998 WS R16L BECMG 21015G26KT RMK 1CU035 A2950

RJAA 250930Z 21013G24KT 170V240 5000 SA FEW030 BKN/// 23/17 Q0999 NOSIG RMK 1CU030 A2950 YELLOW SAND

RJAA 251000Z 21012G23KT 180V240 5000 SA FEW030 BKN/// 22/17 Q0999 WS R16R NOSIG RMK 1CU030 A2951 YELLOW SAND

RJAA 251030Z 21015KT 180V250 5000 SA FEW030 BKN/// 22/17 Q0999 WS R16R WS R16L TEMPO 21016G28KT 4000 SA

RJAA 251100Z 20015KT 5000 SA FEW030 BKN/// 22/17 Q0999 WS R16L TEMPO 21016G28KT 4000 SA RMK 1CU030 A2951 YELLOW SAND

RJAA 251130Z 20013KT 5000 SA FEW030 BKN/// 21/17 Q0999 WS R16R TEMPO 21015G26KT 4000 SA




 
ブログランキングに参加しています。
にほんブログ村 環境ブログ 天気・気象学へ
にほんブログ村
応援クリックをおねがします。


以下、アフィリエイトサイトです。



スポンサーサイト
23:27  |  時事  |  TB(0)  |  CM(0)  |  EDIT  |  Top↑

コメントを投稿する


 管理者だけに表示  (非公開コメント投稿可能)

▲PageTop

この記事のトラックバックURL

→http://weathereucalyptus.blog115.fc2.com/tb.php/496-e149aa24
この記事にトラックバックする(FC2ブログユーザー)

この記事へのトラックバック

▲PageTop

 | BLOGTOP |